createdAt,value
2023-04-30T00:01:15.293Z,99.90
2023-04-30T00:03:42.584Z,99.90
2023-04-30T00:06:09.798Z,99.90
2023-04-30T00:08:37.159Z,99.90
2023-04-30T00:11:04.377Z,99.90
2023-04-30T00:13:31.636Z,99.90
2023-04-30T00:15:58.898Z,99.90
2023-04-30T00:18:26.106Z,99.90
2023-04-30T00:20:53.614Z,99.90
2023-04-30T00:23:20.934Z,99.90
2023-04-30T00:25:48.099Z,99.90
2023-04-30T00:28:15.347Z,99.90
2023-04-30T00:30:42.605Z,99.90
2023-04-30T00:33:09.989Z,99.90
2023-04-30T00:35:37.105Z,99.90
2023-04-30T00:38:04.423Z,99.90
2023-04-30T00:40:33.954Z,99.90
2023-04-30T00:43:01.214Z,99.90
2023-04-30T00:45:30.814Z,99.90
2023-04-30T00:47:58.334Z,99.90
2023-04-30T00:50:25.684Z,99.90
2023-04-30T00:52:53.514Z,99.90
2023-04-30T00:55:20.746Z,99.90
2023-04-30T00:57:48.879Z,99.90
2023-04-30T01:00:16.363Z,99.90
2023-04-30T01:02:46.107Z,99.90
2023-04-30T01:05:13.265Z,99.90
2023-04-30T01:07:45.384Z,99.90
2023-04-30T01:10:15.136Z,99.90
2023-04-30T01:12:48.185Z,99.90
2023-04-30T01:15:18.860Z,99.90
2023-04-30T01:17:57.402Z,99.90
2023-04-30T01:20:26.661Z,99.90
2023-04-30T01:23:03.016Z,99.90
2023-04-30T01:25:45.841Z,99.90
2023-04-30T01:28:17.448Z,99.90
2023-04-30T01:30:45.522Z,99.90
2023-04-30T01:33:13.466Z,99.90
2023-04-30T01:35:44.453Z,99.90
2023-04-30T01:38:28.256Z,99.90
2023-04-30T01:40:59.271Z,99.90
2023-04-30T01:43:34.720Z,99.90
2023-04-30T01:46:19.409Z,99.90
2023-04-30T01:48:56.212Z,99.90
2023-04-30T01:51:30.893Z,99.90
2023-04-30T01:54:06.236Z,99.90
2023-04-30T01:56:44.634Z,99.90
2023-04-30T01:59:14.974Z,99.90
2023-04-30T02:01:42.119Z,99.90
2023-04-30T02:04:09.523Z,99.90
2023-04-30T02:06:36.909Z,99.90
2023-04-30T02:09:06.252Z,99.90
2023-04-30T02:11:33.681Z,99.90
2023-04-30T02:14:01.055Z,99.90
2023-04-30T02:16:28.212Z,99.90
2023-04-30T02:18:55.605Z,99.90
2023-04-30T02:21:22.800Z,99.90
2023-04-30T02:23:50.055Z,99.90
2023-04-30T02:26:17.230Z,99.90
2023-04-30T02:28:44.568Z,99.90
2023-04-30T02:31:11.881Z,99.90
2023-04-30T02:33:39.228Z,99.90
2023-04-30T02:36:06.640Z,99.90
2023-04-30T02:38:33.917Z,99.90
2023-04-30T02:41:02.727Z,99.90
2023-04-30T02:43:30.155Z,99.90
2023-04-30T02:45:57.386Z,99.90
2023-04-30T02:48:24.909Z,99.90
2023-04-30T02:50:52.754Z,99.90
2023-04-30T02:53:20.025Z,99.90
2023-04-30T02:55:47.396Z,99.90
2023-04-30T02:58:14.808Z,99.90
2023-04-30T03:00:41.966Z,99.90
2023-04-30T03:03:09.548Z,99.90
2023-04-30T03:05:36.896Z,99.90
2023-04-30T03:08:04.214Z,99.90
2023-04-30T03:10:31.461Z,99.90
2023-04-30T03:12:58.715Z,99.90
2023-04-30T03:15:26.084Z,99.90
2023-04-30T03:17:53.411Z,99.90
2023-04-30T03:20:20.869Z,99.90
2023-04-30T03:22:48.098Z,99.90
2023-04-30T03:25:15.570Z,99.90
2023-04-30T03:27:42.800Z,99.90
2023-04-30T03:30:10.179Z,99.90
2023-04-30T03:32:38.636Z,99.90
2023-04-30T03:35:06.631Z,99.90
2023-04-30T03:37:34.218Z,99.90
2023-04-30T03:40:01.662Z,99.90
2023-04-30T03:42:28.934Z,99.90
2023-04-30T03:44:56.087Z,99.90
2023-04-30T03:47:23.474Z,99.90
2023-04-30T03:49:55.914Z,99.90
2023-04-30T03:52:24.291Z,99.90
2023-04-30T03:54:51.575Z,99.90
2023-04-30T03:57:20.713Z,99.90
2023-04-30T03:59:48.264Z,99.90
2023-04-30T04:02:16.200Z,99.90
2023-04-30T04:04:44.029Z,99.90
2023-04-30T04:07:11.650Z,99.90
2023-04-30T04:09:38.956Z,99.90
2023-04-30T04:12:06.493Z,99.90
2023-04-30T04:14:34.085Z,99.90
2023-04-30T04:17:02.403Z,99.90
2023-04-30T04:19:29.800Z,99.90
2023-04-30T04:21:58.298Z,99.90
2023-04-30T04:24:26.400Z,99.90
2023-04-30T04:26:54.398Z,99.90
2023-04-30T04:29:21.650Z,99.90
2023-04-30T04:31:49.518Z,99.90
2023-04-30T04:34:17.363Z,99.90
2023-04-30T04:36:44.686Z,99.90
2023-04-30T04:39:12.008Z,99.90
2023-04-30T04:41:39.353Z,99.90
2023-04-30T04:44:08.145Z,99.90
2023-04-30T04:46:38.878Z,99.90
2023-04-30T04:49:06.562Z,99.90
2023-04-30T04:51:34.038Z,99.90
2023-04-30T04:54:01.354Z,99.90
2023-04-30T04:56:28.782Z,99.90
2023-04-30T04:58:56.907Z,99.90
2023-04-30T05:01:24.096Z,99.90
2023-04-30T05:03:52.341Z,99.90
2023-04-30T05:06:20.266Z,99.90
2023-04-30T05:08:47.490Z,99.90
2023-04-30T05:11:15.801Z,99.90
2023-04-30T05:13:43.336Z,99.90
2023-04-30T05:16:10.528Z,99.90
2023-04-30T05:18:37.740Z,99.90
2023-04-30T05:21:04.979Z,99.90
2023-04-30T05:23:32.360Z,99.90
2023-04-30T05:25:59.440Z,99.90
2023-04-30T05:28:26.789Z,99.90
2023-04-30T05:30:53.873Z,99.90
2023-04-30T05:33:21.040Z,99.90
2023-04-30T05:35:48.197Z,99.90
2023-04-30T05:38:15.360Z,99.90
2023-04-30T05:40:42.510Z,99.90
2023-04-30T05:43:10.050Z,99.90
2023-04-30T05:45:37.148Z,99.90
2023-04-30T05:48:04.715Z,99.90
2023-04-30T05:50:31.940Z,99.90
2023-04-30T05:52:59.124Z,99.90
2023-04-30T05:55:26.251Z,99.90
2023-04-30T05:57:53.543Z,99.90
2023-04-30T06:00:20.672Z,99.90
2023-04-30T06:02:48.066Z,99.90
2023-04-30T06:05:16.276Z,99.90
2023-04-30T06:07:43.705Z,99.90
2023-04-30T06:10:12.868Z,99.90
2023-04-30T06:12:41.514Z,99.90
2023-04-30T06:15:08.971Z,99.90
2023-04-30T06:17:36.242Z,99.90
2023-04-30T06:20:07.317Z,99.90
2023-04-30T06:22:34.631Z,99.90
2023-04-30T06:25:01.909Z,99.90
2023-04-30T06:27:29.274Z,99.90
2023-04-30T06:29:56.638Z,99.90
2023-04-30T06:32:24.194Z,99.90
2023-04-30T06:34:51.444Z,99.90
2023-04-30T06:37:18.948Z,99.90
2023-04-30T06:39:46.063Z,99.90
2023-04-30T06:42:13.376Z,99.90
2023-04-30T06:44:40.512Z,99.90
2023-04-30T06:47:08.414Z,99.90
2023-04-30T06:49:35.654Z,99.90
2023-04-30T06:52:03.172Z,99.90
2023-04-30T06:54:30.443Z,99.90
2023-04-30T06:56:57.711Z,99.90
2023-04-30T06:59:24.833Z,99.90
2023-04-30T07:01:52.188Z,99.90
2023-04-30T07:04:20.161Z,99.90
2023-04-30T07:06:47.367Z,99.90
2023-04-30T07:09:15.882Z,99.90
2023-04-30T07:11:43.150Z,99.90
2023-04-30T07:14:10.307Z,99.90
2023-04-30T07:16:37.541Z,99.90
2023-04-30T07:19:04.760Z,99.90
2023-04-30T07:21:32.832Z,99.90
2023-04-30T07:23:59.987Z,99.90
2023-04-30T07:26:27.270Z,99.90
2023-04-30T07:28:54.498Z,99.90
2023-04-30T07:31:21.779Z,99.90
2023-04-30T07:33:50.707Z,99.90
2023-04-30T07:36:18.003Z,99.90
2023-04-30T07:38:45.138Z,99.90
2023-04-30T07:41:12.479Z,99.90
2023-04-30T07:43:39.638Z,99.90
2023-04-30T07:46:07.059Z,99.90
2023-04-30T07:48:34.310Z,99.90
2023-04-30T07:51:01.969Z,99.90
2023-04-30T07:53:29.283Z,99.90
2023-04-30T07:55:56.473Z,99.90
2023-04-30T07:58:23.660Z,99.90
2023-04-30T08:00:50.982Z,99.90
2023-04-30T08:03:20.174Z,99.90
2023-04-30T08:05:48.146Z,99.90
2023-04-30T08:08:15.249Z,99.90
2023-04-30T08:10:42.692Z,99.90
2023-04-30T08:13:09.850Z,99.90
2023-04-30T08:15:38.935Z,99.90
2023-04-30T08:18:06.235Z,99.90
2023-04-30T08:20:34.920Z,99.90
2023-04-30T08:23:04.848Z,99.90
2023-04-30T08:25:32.692Z,99.90
2023-04-30T08:28:00.024Z,99.90
2023-04-30T08:30:27.229Z,99.90
2023-04-30T08:32:56.885Z,99.90
2023-04-30T08:35:25.063Z,99.90
2023-04-30T08:37:53.364Z,99.90
2023-04-30T08:40:23.510Z,99.90
2023-04-30T08:43:03.290Z,99.90
2023-04-30T08:45:31.763Z,99.90
2023-04-30T08:48:00.757Z,99.90
2023-04-30T08:50:28.522Z,99.90
2023-04-30T08:52:55.784Z,99.90
2023-04-30T08:55:22.995Z,99.90
2023-04-30T08:57:50.106Z,99.90
2023-04-30T09:00:17.517Z,99.90
2023-04-30T09:02:45.515Z,99.90
2023-04-30T09:05:14.774Z,99.90
2023-04-30T09:08:01.122Z,99.90
2023-04-30T09:10:34.001Z,99.90
2023-04-30T09:13:05.250Z,99.90
2023-04-30T09:15:34.559Z,99.90
2023-04-30T09:18:04.987Z,99.90
2023-04-30T09:20:32.365Z,99.90
2023-04-30T09:23:06.543Z,99.90
2023-04-30T09:25:37.010Z,99.90
2023-04-30T09:28:07.272Z,99.90
2023-04-30T09:30:34.926Z,99.90
2023-04-30T09:33:02.410Z,99.90
2023-04-30T09:35:31.090Z,99.90
2023-04-30T09:38:01.960Z,99.90
2023-04-30T09:40:32.655Z,99.90
2023-04-30T09:43:00.817Z,99.90
2023-04-30T09:45:39.191Z,99.90
2023-04-30T09:48:16.470Z,99.90
2023-04-30T09:50:46.262Z,99.90
2023-04-30T09:53:15.040Z,99.90
2023-04-30T09:55:45.260Z,98.50
2023-04-30T09:58:13.860Z,98.80
2023-04-30T10:00:42.840Z,97.70
2023-04-30T10:03:13.384Z,97.90
2023-04-30T10:05:47.655Z,98.10
2023-04-30T10:08:22.990Z,98.30
2023-04-30T10:10:54.056Z,98.10
2023-04-30T10:13:22.005Z,97.10
2023-04-30T10:15:51.919Z,96.40
2023-04-30T10:18:22.349Z,95.60
2023-04-30T10:20:50.759Z,97.40
2023-04-30T10:23:18.603Z,96.30
2023-04-30T10:25:46.370Z,96.60
2023-04-30T10:28:13.740Z,97.20
2023-04-30T10:30:43.891Z,97.40
2023-04-30T10:33:15.706Z,96.70
2023-04-30T10:35:47.725Z,97.00
2023-04-30T10:38:22.719Z,98.10
2023-04-30T10:40:49.960Z,97.20
2023-04-30T10:43:20.053Z,95.30
2023-04-30T10:45:47.408Z,95.10
2023-04-30T10:48:24.130Z,95.10
2023-04-30T10:50:55.471Z,95.60
2023-04-30T10:53:23.233Z,96.50
2023-04-30T10:55:53.506Z,96.10
2023-04-30T10:58:24.541Z,96.40
2023-04-30T11:01:01.510Z,96.80
2023-04-30T11:03:30.325Z,95.30
2023-04-30T11:05:57.546Z,95.80
2023-04-30T11:08:33.693Z,94.00
2023-04-30T11:11:01.823Z,94.90
2023-04-30T11:13:29.063Z,95.50
2023-04-30T11:16:04.639Z,95.90
2023-04-30T11:18:33.181Z,95.10
2023-04-30T11:21:02.000Z,96.10
2023-04-30T11:23:40.117Z,94.80
2023-04-30T11:26:10.326Z,94.50
2023-04-30T11:28:38.337Z,95.40
2023-04-30T11:31:06.141Z,94.30
2023-04-30T11:33:35.412Z,95.50
2023-04-30T11:36:04.504Z,93.60
2023-04-30T11:38:35.432Z,94.40
2023-04-30T11:41:03.854Z,94.60
2023-04-30T11:43:32.776Z,95.30
2023-04-30T11:46:04.462Z,94.70
2023-04-30T11:48:33.674Z,93.40
2023-04-30T11:51:05.734Z,94.20
2023-04-30T11:53:33.127Z,94.30
2023-04-30T11:56:03.828Z,94.40
2023-04-30T11:58:35.195Z,94.50
2023-04-30T12:01:02.881Z,94.40
2023-04-30T12:03:31.449Z,93.70
2023-04-30T12:05:58.737Z,93.50
2023-04-30T12:08:26.905Z,93.20
2023-04-30T12:10:54.182Z,93.10
2023-04-30T12:13:21.334Z,93.70
2023-04-30T12:15:51.594Z,92.10
2023-04-30T12:18:18.837Z,94.80
2023-04-30T12:20:46.284Z,93.90
2023-04-30T12:23:13.541Z,94.70
2023-04-30T12:25:44.098Z,95.40
2023-04-30T12:28:12.044Z,94.70
2023-04-30T12:30:39.198Z,94.60
2023-04-30T12:33:07.308Z,94.10
2023-04-30T12:35:35.171Z,94.30
2023-04-30T12:38:04.900Z,93.30
2023-04-30T12:40:32.963Z,94.50
2023-04-30T12:43:02.623Z,93.30
2023-04-30T12:45:33.661Z,94.90
2023-04-30T12:48:01.196Z,93.10
2023-04-30T12:50:28.432Z,94.50
2023-04-30T12:52:55.940Z,93.30
2023-04-30T12:55:23.193Z,93.60
2023-04-30T12:58:06.502Z,93.50
2023-04-30T13:00:36.731Z,94.50
2023-04-30T13:03:04.267Z,96.00
2023-04-30T13:05:31.589Z,95.50
2023-04-30T13:08:03.620Z,94.40
2023-04-30T13:10:30.894Z,95.00
2023-04-30T13:12:58.227Z,95.40
2023-04-30T13:15:25.789Z,95.60
2023-04-30T13:17:54.016Z,95.20
2023-04-30T13:20:21.511Z,93.30
2023-04-30T13:22:48.658Z,93.30
2023-04-30T13:25:16.039Z,93.80
2023-04-30T13:27:43.570Z,94.80
2023-04-30T13:30:11.459Z,94.80
2023-04-30T13:32:38.703Z,95.10
2023-04-30T13:35:06.615Z,93.50
2023-04-30T13:37:33.770Z,94.90
2023-04-30T13:40:01.598Z,94.90
2023-04-30T13:42:28.751Z,94.50
2023-04-30T13:44:56.184Z,95.10
2023-04-30T13:47:23.437Z,95.70
2023-04-30T13:49:50.842Z,94.20
2023-04-30T13:52:17.953Z,93.80
2023-04-30T13:54:45.193Z,93.80
2023-04-30T13:57:12.341Z,94.80
2023-04-30T13:59:39.695Z,94.10
2023-04-30T14:02:07.602Z,92.90
2023-04-30T14:04:34.912Z,93.20
2023-04-30T14:07:02.694Z,94.50
2023-04-30T14:09:30.238Z,93.70
2023-04-30T14:11:59.219Z,93.00
2023-04-30T14:14:26.980Z,93.10
2023-04-30T14:16:54.575Z,93.20
2023-04-30T14:19:23.200Z,93.70
2023-04-30T14:21:50.371Z,93.30
2023-04-30T14:24:18.110Z,93.30
2023-04-30T14:26:46.192Z,92.70
2023-04-30T14:29:13.465Z,92.40
2023-04-30T14:31:40.659Z,92.40
2023-04-30T14:34:08.028Z,93.50
2023-04-30T14:36:36.325Z,92.30
2023-04-30T14:39:04.763Z,93.50
2023-04-30T14:41:34.448Z,93.00
2023-04-30T14:44:01.791Z,93.50
2023-04-30T14:46:29.105Z,93.70
2023-04-30T14:48:56.582Z,92.20
2023-04-30T14:51:23.715Z,93.10
2023-04-30T14:53:50.949Z,93.10
2023-04-30T14:56:18.131Z,93.50
2023-04-30T14:58:45.499Z,92.70
2023-04-30T15:01:12.699Z,93.30
2023-04-30T15:03:40.145Z,92.90
2023-04-30T15:06:07.428Z,91.80
2023-04-30T15:08:34.643Z,93.20
2023-04-30T15:11:01.823Z,92.70
2023-04-30T15:13:29.036Z,92.90
2023-04-30T15:15:56.271Z,93.90
2023-04-30T15:18:23.564Z,93.90
2023-04-30T15:20:50.901Z,94.70
2023-04-30T15:23:18.319Z,95.20
2023-04-30T15:25:45.512Z,95.50
2023-04-30T15:28:12.898Z,95.30
2023-04-30T15:30:40.197Z,95.70
2023-04-30T15:33:07.382Z,98.90
2023-04-30T15:35:34.894Z,99.90
2023-04-30T15:38:02.105Z,99.90
2023-04-30T15:40:29.253Z,99.90
2023-04-30T15:42:56.515Z,99.90
2023-04-30T15:45:25.339Z,99.90
2023-04-30T15:47:52.711Z,99.90
2023-04-30T15:50:19.976Z,99.90
2023-04-30T15:52:47.601Z,99.90
2023-04-30T15:55:14.816Z,99.90
2023-04-30T15:57:42.072Z,99.90
2023-04-30T16:00:10.735Z,99.90
2023-04-30T16:02:39.658Z,99.90
2023-04-30T16:05:07.389Z,99.90
2023-04-30T16:07:34.931Z,99.90
2023-04-30T16:10:02.706Z,99.90
2023-04-30T16:12:30.178Z,99.90
2023-04-30T16:14:57.306Z,99.90
2023-04-30T16:17:24.560Z,99.90
2023-04-30T16:19:51.765Z,99.90
2023-04-30T16:22:19.113Z,99.90
2023-04-30T16:24:46.286Z,99.90
2023-04-30T16:27:13.515Z,99.90
2023-04-30T16:29:40.653Z,99.90
2023-04-30T16:32:08.387Z,99.90
2023-04-30T16:34:35.673Z,99.90
2023-04-30T16:37:02.866Z,99.90
2023-04-30T16:39:30.010Z,99.90
2023-04-30T16:41:57.403Z,99.90
2023-04-30T16:44:24.551Z,99.90
2023-04-30T16:46:51.812Z,99.90
2023-04-30T16:49:18.952Z,99.90
2023-04-30T16:51:47.449Z,99.90
2023-04-30T16:54:14.592Z,99.90
2023-04-30T16:56:42.081Z,99.90
2023-04-30T16:59:09.171Z,99.90
2023-04-30T17:01:36.422Z,99.90
2023-04-30T17:04:04.483Z,99.90
2023-04-30T17:06:33.215Z,99.90
2023-04-30T17:09:00.495Z,99.90
2023-04-30T17:11:28.405Z,99.90
2023-04-30T17:13:55.513Z,99.90
2023-04-30T17:16:22.878Z,99.90
2023-04-30T17:18:50.256Z,99.90
2023-04-30T17:21:17.531Z,99.90
2023-04-30T17:23:44.847Z,99.90
2023-04-30T17:26:12.240Z,99.90
2023-04-30T17:28:40.070Z,99.90
2023-04-30T17:31:08.114Z,99.90
2023-04-30T17:33:35.871Z,99.90
2023-04-30T17:36:03.208Z,99.90
2023-04-30T17:38:30.441Z,99.90
2023-04-30T17:40:57.963Z,99.90
2023-04-30T17:43:25.102Z,99.90
2023-04-30T17:45:53.444Z,99.90
2023-04-30T17:48:20.887Z,99.90
2023-04-30T17:50:48.224Z,99.90
2023-04-30T17:53:15.371Z,99.90
2023-04-30T17:55:42.803Z,99.90
2023-04-30T17:58:11.779Z,99.90
2023-04-30T18:00:40.968Z,99.90
2023-04-30T18:03:09.205Z,99.90
2023-04-30T18:05:36.593Z,99.90
2023-04-30T18:08:03.876Z,99.90
2023-04-30T18:10:31.158Z,99.90
2023-04-30T18:12:59.513Z,99.90
2023-04-30T18:15:27.528Z,99.90
2023-04-30T18:17:55.028Z,99.90
2023-04-30T18:20:22.301Z,99.90
2023-04-30T18:22:49.429Z,99.90
2023-04-30T18:25:17.795Z,99.90
2023-04-30T18:27:45.004Z,99.90
2023-04-30T18:30:12.843Z,99.90
2023-04-30T18:32:42.084Z,99.90
2023-04-30T18:35:09.752Z,99.90
2023-04-30T18:37:37.188Z,99.90
2023-04-30T18:40:05.105Z,99.90
2023-04-30T18:42:33.404Z,99.90
2023-04-30T18:45:01.240Z,99.90
2023-04-30T18:47:28.701Z,99.90
2023-04-30T18:49:56.261Z,99.90
2023-04-30T18:52:23.962Z,99.90
2023-04-30T18:54:51.258Z,99.90
2023-04-30T18:57:18.767Z,99.90
2023-04-30T18:59:45.910Z,99.90
2023-04-30T19:02:14.192Z,99.90
2023-04-30T19:04:41.362Z,99.90
2023-04-30T19:07:08.980Z,99.90
2023-04-30T19:09:37.100Z,99.90
2023-04-30T19:12:04.620Z,99.90
2023-04-30T19:14:31.974Z,99.90
2023-04-30T19:17:00.370Z,99.90
2023-04-30T19:19:27.930Z,99.90
2023-04-30T19:21:55.477Z,99.90
2023-04-30T19:24:23.806Z,99.90
2023-04-30T19:26:51.706Z,99.90
2023-04-30T19:29:19.321Z,99.90
2023-04-30T19:31:46.650Z,99.90
2023-04-30T19:34:14.012Z,99.90
2023-04-30T19:36:44.191Z,99.90
2023-04-30T19:39:12.139Z,99.90
2023-04-30T19:41:39.430Z,99.90
2023-04-30T19:44:08.049Z,99.90
2023-04-30T19:46:35.436Z,99.90
2023-04-30T19:49:02.721Z,99.90
2023-04-30T19:51:30.066Z,99.90
2023-04-30T19:53:58.984Z,99.90
2023-04-30T19:56:26.395Z,99.90
2023-04-30T19:58:53.656Z,99.90
2023-04-30T20:01:20.919Z,99.90
2023-04-30T20:03:48.165Z,99.90
2023-04-30T20:06:15.704Z,99.90
2023-04-30T20:08:42.849Z,99.90
2023-04-30T20:11:10.068Z,99.90
2023-04-30T20:13:37.313Z,99.90
2023-04-30T20:16:04.627Z,99.90
2023-04-30T20:18:32.458Z,99.90
2023-04-30T20:20:59.763Z,99.90
2023-04-30T20:23:26.956Z,99.90
2023-04-30T20:25:55.165Z,99.90
2023-04-30T20:28:22.447Z,99.90
2023-04-30T20:30:49.755Z,99.90
2023-04-30T20:33:17.525Z,99.90
2023-04-30T20:35:46.546Z,99.90
2023-04-30T20:38:17.273Z,99.90
2023-04-30T20:40:46.378Z,99.90
2023-04-30T20:43:14.204Z,99.90
2023-04-30T20:45:43.869Z,99.90
2023-04-30T20:48:11.051Z,99.90
2023-04-30T20:50:38.418Z,99.90
2023-04-30T20:53:05.655Z,99.90
2023-04-30T20:55:32.978Z,99.90
2023-04-30T20:58:00.288Z,99.90
2023-04-30T21:00:27.803Z,99.90
2023-04-30T21:02:55.033Z,99.90
2023-04-30T21:05:22.425Z,99.90
2023-04-30T21:07:49.634Z,99.90
2023-04-30T21:10:16.911Z,99.90
2023-04-30T21:12:44.270Z,99.90
2023-04-30T21:15:12.010Z,99.90
2023-04-30T21:17:39.191Z,99.90
2023-04-30T21:20:07.296Z,99.90
2023-04-30T21:22:35.001Z,99.90
2023-04-30T21:25:02.343Z,99.90
2023-04-30T21:27:29.585Z,99.90
2023-04-30T21:29:57.092Z,99.90
2023-04-30T21:32:24.498Z,99.90
2023-04-30T21:34:51.792Z,99.90
2023-04-30T21:37:18.937Z,99.90
2023-04-30T21:39:46.163Z,99.90
2023-04-30T21:42:13.383Z,99.90
2023-04-30T21:44:40.599Z,99.90
2023-04-30T21:47:08.746Z,99.90
2023-04-30T21:49:36.152Z,99.90
2023-04-30T21:52:07.967Z,99.90
2023-04-30T21:54:35.322Z,99.90
2023-04-30T21:57:02.819Z,99.90
2023-04-30T21:59:30.078Z,99.90
2023-04-30T22:01:58.434Z,99.90
2023-04-30T22:04:26.723Z,99.90
2023-04-30T22:06:54.395Z,99.90
2023-04-30T22:09:21.688Z,99.90
2023-04-30T22:11:49.777Z,99.90
2023-04-30T22:14:17.101Z,99.90
2023-04-30T22:16:44.399Z,99.90
2023-04-30T22:19:11.760Z,99.90
2023-04-30T22:21:39.032Z,99.90
2023-04-30T22:24:07.017Z,99.90
2023-04-30T22:26:34.212Z,99.90
2023-04-30T22:29:01.528Z,99.90
2023-04-30T22:31:29.370Z,99.90
2023-04-30T22:33:56.772Z,99.90
2023-04-30T22:36:23.904Z,99.90
2023-04-30T22:38:51.233Z,99.90
2023-04-30T22:41:18.741Z,99.90
2023-04-30T22:43:47.676Z,99.90
2023-04-30T22:46:15.614Z,99.90
2023-04-30T22:48:44.590Z,99.90
2023-04-30T22:51:11.806Z,99.90
2023-04-30T22:53:39.155Z,99.90
2023-04-30T22:56:06.664Z,99.90
2023-04-30T22:58:34.021Z,99.90
2023-04-30T23:01:01.269Z,99.90
2023-04-30T23:03:28.604Z,99.90
2023-04-30T23:05:58.564Z,99.90
2023-04-30T23:08:26.208Z,99.90
2023-04-30T23:10:55.704Z,99.90
2023-04-30T23:13:23.021Z,99.90
2023-04-30T23:15:50.189Z,99.90
2023-04-30T23:18:17.883Z,99.90
2023-04-30T23:20:45.024Z,99.90
2023-04-30T23:23:12.240Z,99.90
2023-04-30T23:25:39.562Z,99.90
2023-04-30T23:28:06.861Z,99.90
2023-04-30T23:30:37.750Z,99.90
2023-04-30T23:33:05.275Z,99.90
2023-04-30T23:35:32.484Z,99.90
2023-04-30T23:37:59.721Z,99.90
2023-04-30T23:40:26.938Z,99.90
2023-04-30T23:42:54.200Z,99.90
2023-04-30T23:45:22.688Z,99.90
2023-04-30T23:47:50.073Z,99.90
2023-04-30T23:50:17.359Z,99.90
2023-04-30T23:52:44.614Z,99.90
2023-04-30T23:55:12.127Z,99.90
2023-04-30T23:57:39.394Z,99.90
